^^
Grace C. Lehan Memorial Weather Station Historical Data
Daily Summary for September 6, 2021 Units:  Metric    English   Both
Daily Weekly Monthly Yearly
  High: Low: Average:
Temperature: 35.1 °C 19.9 °C 28.7 °C
Dew Point: 20.8 °C 16.9 °C 18.9 °C
Humidity: 85% 37.1% 58%
Wind Speed: 8.9km/h 0km/h 1.3km/h
Wind Gust: 22.5km/h - -
Wind- - WSW
Pressure: 1016.1 hPa 1012.1 hPa -
Precipitation: 0 mm    
 
 
Tabular Data for September 6, 2021
Time Temperature Dew Point Pressure Wind Wind Speed Wind Gust Humidity Rainfall Rate (Hourly) solar
00:04 24.3 °C 18 °C 1012.1 hPa Calm     67.6% 0 mm 0 W/m2
00:09 24.3 °C 18 °C 1012.1 hPa WNW 0.5 km/h 4.8 km/h 68% 0 mm 0 W/m2
00:14 24.2 °C 17.9 °C 1012.1 hPa Calm   4.8 km/h 68% 0 mm 0 W/m2
00:19 24.1 °C 17.8 °C 1012.1 hPa Calm   4.8 km/h 68% 0 mm 0 W/m2
00:24 24.1 °C 17.8 °C 1012.1 hPa Calm   4.8 km/h 68% 0 mm 0 W/m2
00:29 23.9 °C 17.5 °C 1012.1 hPa Calm   4.8 km/h 67.3% 0 mm 0 W/m2
00:34 23.9 °C 17.7 °C 1012.1 hPa Calm   4.8 km/h 68% 0 mm 0 W/m2
00:39 23.9 °C 17.7 °C 1012.1 hPa Calm     68.2% 0 mm 0 W/m2
00:44 23.8 °C 17.8 °C 1012.4 hPa Calm     69.2% 0 mm 0 W/m2
00:49 23.7 °C 17.7 °C 1012.1 hPa Calm     69% 0 mm 0 W/m2
00:54 23.6 °C 17.7 °C 1012.4 hPa Calm     69.3% 0 mm 0 W/m2
00:59 23.5 °C 17.9 °C 1012.4 hPa Calm   1.6 km/h 70.9% 0 mm 0 W/m2
01:04 23.3 °C 18 °C 1012.1 hPa Calm   1.6 km/h 72% 0 mm 0 W/m2
01:09 23.2 °C 17.8 °C 1012.4 hPa Calm     72% 0 mm 0 W/m2
01:14 23.1 °C 17.7 °C 1012.4 hPa Calm     72% 0 mm 0 W/m2
01:19 22.9 °C 17.6 °C 1012.4 hPa Calm     72% 0 mm 0 W/m2
01:24 22.8 °C 17.6 °C 1012.4 hPa Calm     72% 0 mm 0 W/m2
01:29 22.8 °C 17.6 °C 1012.4 hPa Calm     72.6% 0 mm 0 W/m2
01:34 22.8 °C 17.7 °C 1012.4 hPa Calm     73% 0 mm 0 W/m2
01:39 22.7 °C 17.8 °C 1012.4 hPa Calm     73.9% 0 mm 0 W/m2
01:44 22.7 °C 17.9 °C 1012.4 hPa Calm     74.5% 0 mm 0 W/m2
01:49 22.7 °C 17.8 °C 1012.4 hPa Calm     74% 0 mm 0 W/m2
01:54 22.7 °C 17.8 °C 1012.4 hPa Calm     73.9% 0 mm 0 W/m2
01:59 22.7 °C 17.5 °C 1012.4 hPa Calm     72.6% 0 mm 0 W/m2
02:04 22.7 °C 17.4 °C 1012.4 hPa Calm     72% 0 mm 0 W/m2
02:09 22.8 °C 17.5 °C 1012.4 hPa Calm     72% 0 mm 0 W/m2
02:14 22.8 °C 17.5 °C 1012.1 hPa Calm     72% 0 mm 0 W/m2
02:19 22.8 °C 17.5 °C 1012.1 hPa Calm     72% 0 mm 0 W/m2
02:24 22.8 °C 17.4 °C 1012.1 hPa Calm     72% 0 mm 0 W/m2
02:29 22.7 °C 17.6 °C 1012.1 hPa Calm     72.9% 0 mm 0 W/m2
02:34 22.6 °C 17.8 °C 1012.1 hPa Calm     74.4% 0 mm 0 W/m2
02:39 22.4 °C 17.8 °C 1012.1 hPa Calm     75% 0 mm 0 W/m2
02:44 22.3 °C 17.6 °C 1012.1 hPa Calm     75% 0 mm 0 W/m2
02:49 22.2 °C 17.8 °C 1012.1 hPa Calm     76% 0 mm 0 W/m2
02:54 22.1 °C 17.6 °C 1012.4 hPa Calm     76% 0 mm 0 W/m2
02:59 21.9 °C 17.7 °C 1012.4 hPa Calm     77% 0 mm 0 W/m2
03:04 21.8 °C 17.6 °C 1012.8 hPa Calm     77% 0 mm 0 W/m2
03:09 21.7 °C 17.7 °C 1012.8 hPa Calm     77.9% 0 mm 0 W/m2
03:14 21.6 °C 17.6 °C 1012.8 hPa NNE 1.9 km/h 9.7 km/h 77.8% 0 mm 0 W/m2
03:19 21.7 °C 17.6 °C 1012.8 hPa Calm   9.7 km/h 77.7% 0 mm 0 W/m2
03:24 21.7 °C 17.6 °C 1012.8 hPa Calm   9.7 km/h 77.7% 0 mm 0 W/m2
03:29 21.7 °C 17.5 °C 1012.8 hPa Calm   9.7 km/h 77% 0 mm 0 W/m2
03:34 21.7 °C 17.5 °C 1013.1 hPa Calm   9.7 km/h 77% 0 mm 0 W/m2
03:39 21.7 °C 17.4 °C 1013.1 hPa Calm     76.7% 0 mm 0 W/m2
03:44 21.7 °C 17.3 °C 1013.1 hPa Calm     76.1% 0 mm 0 W/m2
03:49 21.8 °C 17.6 °C 1013.1 hPa Calm     77% 0 mm 0 W/m2
03:54 21.7 °C 17.5 °C 1013.1 hPa Calm     77% 0 mm 0 W/m2
03:59 21.7 °C 17.4 °C 1013.1 hPa Calm     77% 0 mm 0 W/m2
04:04 21.6 °C 17.3 °C 1013.1 hPa Calm     77% 0 mm 0 W/m2
04:09 21.5 °C 17.3 °C 1013.1 hPa Calm     77.2% 0 mm 0 W/m2
04:14 21.4 °C 17.2 °C 1013.1 hPa Calm     77% 0 mm 0 W/m2
04:19 21.3 °C 17.1 °C 1013.1 hPa Calm     77% 0 mm 0 W/m2
04:24 21.3 °C 17.2 °C 1013.1 hPa Calm     77.7% 0 mm 0 W/m2
04:29 21.2 °C 17.2 °C 1013.1 hPa Calm     78% 0 mm 0 W/m2
04:34 21.2 °C 17.2 °C 1013.4 hPa Calm     78% 0 mm 0 W/m2
04:39 21.1 °C 17.1 °C 1013.4 hPa Calm     78% 0 mm 0 W/m2
04:44 21 °C 17.2 °C 1013.4 hPa Calm     78.6% 0 mm 0 W/m2
04:49 20.9 °C 17.3 °C 1013.8 hPa Calm     79.8% 0 mm 0 W/m2
04:54 20.7 °C 17.2 °C 1013.8 hPa Calm     80% 0 mm 0 W/m2
04:59 20.6 °C 17.1 °C 1013.8 hPa Calm     80.5% 0 mm 0 W/m2
05:04 20.5 °C 17.1 °C 1013.8 hPa Calm     81% 0 mm 0 W/m2
05:09 20.4 °C 17.1 °C 1013.8 hPa Calm     81% 0 mm 0 W/m2
05:14 20.3 °C 16.9 °C 1013.8 hPa Calm     81% 0 mm 0 W/m2
05:19 20.3 °C 16.9 °C 1013.8 hPa Calm     81% 0 mm 0 W/m2
05:24 20.3 °C 17.1 °C 1014.1 hPa Calm     81.9% 0 mm 5 W/m2
05:29 20.2 °C 17 °C 1014.1 hPa Calm     82% 0 mm 7 W/m2
05:34 20.2 °C 17.1 °C 1014.1 hPa Calm     82.6% 0 mm 9 W/m2
05:39 20.1 °C 17.1 °C 1014.1 hPa Calm     83% 0 mm 12 W/m2
05:44 20.1 °C 17.1 °C 1014.1 hPa Calm     83% 0 mm 14 W/m2
05:49 20.1 °C 17.1 °C 1014.1 hPa Calm     83% 0 mm 18 W/m2
05:54 20 °C 17.2 °C 1014.4 hPa Calm     84% 0 mm 21 W/m2
05:59 19.9 °C 17.2 °C 1014.4 hPa Calm     84.1% 0 mm 23 W/m2
06:04 19.9 °C 17.3 °C 1014.4 hPa Calm     85% 0 mm 26 W/m2
06:09 19.9 °C 17.3 °C 1014.4 hPa Calm   1.6 km/h 85% 0 mm 28 W/m2
06:14 19.9 °C 17.3 °C 1014.8 hPa Calm   1.6 km/h 84.6% 0 mm 30 W/m2
06:19 20.1 °C 17.3 °C 1014.8 hPa Calm   1.6 km/h 84% 0 mm 33 W/m2
06:24 20.3 °C 17.3 °C 1014.8 hPa Calm   1.6 km/h 83% 0 mm 39 W/m2
06:29 20.6 °C 17.4 °C 1014.8 hPa Calm   1.6 km/h 82.5% 0 mm 46 W/m2
06:34 20.8 °C 17.6 °C 1015.1 hPa Calm   1.6 km/h 82% 0 mm 53 W/m2
06:39 21.1 °C 17.8 °C 1015.1 hPa Calm     82% 0 mm 54 W/m2
06:44 21.4 °C 18.1 °C 1015.1 hPa Calm     81.3% 0 mm 60 W/m2
06:49 21.8 °C 18.4 °C 1015.1 hPa Calm     80.8% 0 mm 63 W/m2
06:54 22.3 °C 18.5 °C 1015.1 hPa Calm     79% 0 mm 65 W/m2
06:59 22.8 °C 18.8 °C 1015.1 hPa Calm     77.7% 0 mm 69 W/m2
07:04 23.4 °C 19.1 °C 1015.1 hPa Calm     76.6% 0 mm 70 W/m2
07:09 23.9 °C 19.2 °C 1015.1 hPa Calm     75% 0 mm 72 W/m2
07:14 24.5 °C 19.3 °C 1015.5 hPa Calm     72.8% 0 mm 76 W/m2
07:19 25 °C 19.4 °C 1015.5 hPa Calm     71.1% 0 mm 104 W/m2
07:24 25.4 °C 19.5 °C 1015.5 hPa Calm     69.8% 0 mm 295 W/m2
07:29 25.7 °C 19.4 °C 1015.5 hPa Calm     68% 0 mm 315 W/m2
07:34 26 °C 19.4 °C 1015.5 hPa Calm     67.1% 0 mm 330 W/m2
07:39 26.3 °C 19.6 °C 1015.5 hPa Calm     66.7% 0 mm 345 W/m2
07:44 26.6 °C 19.7 °C 1015.5 hPa Calm     66% 0 mm 357 W/m2
07:49 26.9 °C 19.5 °C 1015.8 hPa Calm     64.1% 0 mm 373 W/m2
07:54 27.1 °C 19.6 °C 1015.8 hPa Calm     63.5% 0 mm 388 W/m2
07:59 27.3 °C 19.8 °C 1015.8 hPa Calm     63.8% 0 mm 408 W/m2
08:09 27.8 °C 19.7 °C 1015.8 hPa Calm     61.4% 0 mm 441 W/m2
08:14 28 °C 19.6 °C 1015.8 hPa Calm     60.1% 0 mm 459 W/m2
08:19 28.2 °C 19.4 °C 1015.8 hPa Calm     58.8% 0 mm 473 W/m2
08:24 28.4 °C 19.7 °C 1015.8 hPa Calm     59.2% 0 mm 489 W/m2
08:29 28.6 °C 20.3 °C 1015.8 hPa Calm     60.8% 0 mm 506 W/m2
08:34 28.9 °C 20.3 °C 1015.8 hPa Calm     59.9% 0 mm 524 W/m2
08:39 29.1 °C 20.2 °C 1015.8 hPa Calm     58.6% 0 mm 541 W/m2
08:44 29.3 °C 20.1 °C 1015.8 hPa Calm     57.9% 0 mm 555 W/m2
08:49 29.5 °C 20.2 °C 1015.8 hPa Calm     57.3% 0 mm 571 W/m2
08:54 29.7 °C 20.2 °C 1015.8 hPa Calm     56.7% 0 mm 585 W/m2
08:59 30 °C 20.3 °C 1015.8 hPa Calm     56.2% 0 mm 599 W/m2
09:04 30.3 °C 20.2 °C 1015.8 hPa Calm   1.6 km/h 54.8% 0 mm 615 W/m2
09:09 30.5 °C 20 °C 1015.8 hPa Calm   1.6 km/h 53.6% 0 mm 629 W/m2
09:14 30.6 °C 20.1 °C 1015.8 hPa West 0.6 km/h 9.7 km/h 53.3% 0 mm 643 W/m2
09:19 30.8 °C 20.1 °C 1015.8 hPa Calm   9.7 km/h 52.6% 0 mm 659 W/m2
09:24 31.1 °C 20.6 °C 1015.8 hPa West 0.2 km/h 9.7 km/h 53.7% 0 mm 673 W/m2
09:29 31.4 °C 20.6 °C 1015.8 hPa Calm   9.7 km/h 52.7% 0 mm 686 W/m2
09:34 31.6 °C 20.4 °C 1015.8 hPa West 0.3 km/h 9.7 km/h 51.6% 0 mm 700 W/m2
09:39 31.9 °C 20 °C 1015.8 hPa West 0.2 km/h 4.8 km/h 49.6% 0 mm 715 W/m2
09:44 32 °C 19.9 °C 1015.8 hPa West 0.6 km/h 8 km/h 48.7% 0 mm 728 W/m2
09:49 32.1 °C 19.5 °C 1015.8 hPa Calm   8 km/h 47.5% 0 mm 740 W/m2
09:54 32.2 °C 19.3 °C 1015.8 hPa WSW 0.3 km/h 8 km/h 46.7% 0 mm 754 W/m2
09:59 32.3 °C 19.3 °C 1015.8 hPa WSW 1 km/h 9.7 km/h 46.3% 0 mm 770 W/m2
10:04 32.4 °C 19.3 °C 1015.5 hPa WSW 1.8 km/h 9.7 km/h 46.1% 0 mm 779 W/m2
10:09 32.5 °C 19.5 °C 1015.5 hPa WSW 1.8 km/h 14.5 km/h 46.2% 0 mm 789 W/m2
10:14 32.8 °C 19.8 °C 1015.5 hPa WSW 2.4 km/h 14.5 km/h 46.4% 0 mm 802 W/m2
10:19 32.9 °C 19.3 °C 1015.5 hPa WSW 1.3 km/h 14.5 km/h 44.6% 0 mm 814 W/m2
10:24 32.9 °C 19.7 °C 1015.5 hPa WSW 0.3 km/h 14.5 km/h 45.7% 0 mm 826 W/m2
10:29 33.1 °C 19.9 °C 1015.5 hPa Calm   14.5 km/h 46.1% 0 mm 835 W/m2
10:34 33.3 °C 20.1 °C 1015.5 hPa West 0.5 km/h 14.5 km/h 45.8% 0 mm 847 W/m2
10:39 33.6 °C 20.3 °C 1015.5 hPa WSW 1.6 km/h 9.7 km/h 45.8% 0 mm 853 W/m2
10:44 33.7 °C 19.9 °C 1015.5 hPa WSW 1.8 km/h 9.7 km/h 44.3% 0 mm 861 W/m2
10:49 33.8 °C 20.6 °C 1015.5 hPa WSW 2.3 km/h 9.7 km/h 46.2% 0 mm 867 W/m2
10:54 33.8 °C 20.1 °C 1015.5 hPa SW 2.1 km/h 9.7 km/h 44.6% 0 mm 877 W/m2
10:59 33.8 °C 20 °C 1015.5 hPa SW 1.6 km/h 9.7 km/h 44.3% 0 mm 889 W/m2
11:04 33.9 °C 20.4 °C 1015.5 hPa WSW 2.9 km/h 16.1 km/h 45.2% 0 mm 898 W/m2
11:09 33.9 °C 20 °C 1015.5 hPa SW 1 km/h 16.1 km/h 44.3% 0 mm 909 W/m2
11:14 33.8 °C 20.2 °C 1015.5 hPa SW 2.4 km/h 16.1 km/h 44.6% 0 mm 909 W/m2
11:19 33.7 °C 19.9 °C 1015.5 hPa SW 0.6 km/h 16.1 km/h 44.3% 0 mm 865 W/m2
11:24 33.6 °C 20.6 °C 1015.1 hPa SSW 2.1 km/h 16.1 km/h 46.3% 0 mm 889 W/m2
11:29 33.7 °C 20.3 °C 1015.5 hPa SSW 1.6 km/h 16.1 km/h 45.7% 0 mm 912 W/m2
11:34 33.7 °C 20.2 °C 1015.5 hPa WSW 4 km/h 16.1 km/h 45.1% 0 mm 926 W/m2
11:39 33.9 °C 20.2 °C 1015.5 hPa WSW 2.1 km/h 16.1 km/h 44.6% 0 mm 928 W/m2
11:44 34.1 °C 19.9 °C 1015.5 hPa WSW 2.1 km/h 16.1 km/h 43.6% 0 mm 946 W/m2
11:49 34.2 °C 20 °C 1015.1 hPa WSW 2.3 km/h 16.1 km/h 43.5% 0 mm 928 W/m2
11:54 34.2 °C 20.2 °C 1015.1 hPa WNW 3.2 km/h 16.1 km/h 44% 0 mm 960 W/m2
11:59 34.4 °C 19.8 °C 1015.1 hPa West 2.6 km/h 16.1 km/h 42.5% 0 mm 969 W/m2
12:09 34.5 °C 19.9 °C 1015.1 hPa West 3.1 km/h 11.3 km/h 42.5% 0 mm 919 W/m2
12:14 34.6 °C 19.9 °C 1015.1 hPa WSW 4 km/h 16.1 km/h 42.3% 0 mm 919 W/m2
12:19 34.6 °C 19.9 °C 1015.1 hPa West 3.4 km/h 16.1 km/h 42.3% 0 mm 953 W/m2
12:24 34.6 °C 20.1 °C 1015.1 hPa WSW 1.4 km/h 16.1 km/h 42.8% 0 mm 963 W/m2
12:29 34.4 °C 19.8 °C 1015.1 hPa SW 4.2 km/h 16.1 km/h 42.2% 0 mm 963 W/m2
12:34 34.4 °C 19.9 °C 1015.1 hPa WSW 4.2 km/h 16.1 km/h 42.8% 0 mm 951 W/m2
12:39 34.4 °C 19.1 °C 1015.1 hPa West 4.3 km/h 11.3 km/h 40.4% 0 mm 988 W/m2
12:44 34.3 °C 19.2 °C 1015.1 hPa WSW 5.6 km/h 20.9 km/h 41.2% 0 mm 984 W/m2
12:49 34.2 °C 19.8 °C 1015.1 hPa West 3.1 km/h 20.9 km/h 42.8% 0 mm 969 W/m2
12:54 34.3 °C 19.9 °C 1014.8 hPa West 4.3 km/h 20.9 km/h 43% 0 mm 958 W/m2
12:59 34.4 °C 19.7 °C 1014.8 hPa WSW 4.5 km/h 20.9 km/h 42.3% 0 mm 981 W/m2
13:04 34.4 °C 19.6 °C 1014.8 hPa SW 3.5 km/h 20.9 km/h 41.6% 0 mm 977 W/m2
13:09 34.5 °C 19.2 °C 1014.8 hPa WSW 3.4 km/h 9.7 km/h 40.7% 0 mm 972 W/m2
13:14 34.4 °C 18.7 °C 1014.8 hPa WSW 2.3 km/h 9.7 km/h 39.6% 0 mm 976 W/m2
13:19 34.6 °C 20.1 °C 1014.8 hPa WNW 2.4 km/h 11.3 km/h 42.7% 0 mm 974 W/m2
13:24 34.8 °C 19.4 °C 1014.8 hPa WSW 2.9 km/h 12.9 km/h 40.6% 0 mm 972 W/m2
13:29 34.8 °C 19.4 °C 1014.8 hPa West 3.7 km/h 12.9 km/h 40.5% 0 mm 962 W/m2
13:34 34.8 °C 19.4 °C 1014.4 hPa West 3.1 km/h 12.9 km/h 40.5% 0 mm 962 W/m2
13:39 34.6 °C 19.8 °C 1014.4 hPa WSW 3.1 km/h 16.1 km/h 42.1% 0 mm 963 W/m2
13:44 34.4 °C 19.6 °C 1014.4 hPa WNW 5.5 km/h 16.1 km/h 41.8% 0 mm 965 W/m2
13:49 34.4 °C 19.7 °C 1014.4 hPa SW 5.1 km/h 16.1 km/h 41.9% 0 mm 965 W/m2
13:54 34.6 °C 19.8 °C 1014.4 hPa WSW 5.3 km/h 20.9 km/h 42.1% 0 mm 954 W/m2
13:59 34.7 °C 19.7 °C 1014.4 hPa WSW 2.6 km/h 20.9 km/h 41.5% 0 mm 949 W/m2
14:04 34.7 °C 19.2 °C 1014.4 hPa West 2.3 km/h 20.9 km/h 40.4% 0 mm 946 W/m2
14:09 34.7 °C 19.6 °C 1014.4 hPa WSW 3.7 km/h 12.9 km/h 41% 0 mm 946 W/m2
14:14 34.8 °C 19.1 °C 1014.4 hPa West 6.1 km/h 14.5 km/h 39.5% 0 mm 933 W/m2
14:19 34.8 °C 19 °C 1014.4 hPa WSW 4.8 km/h 14.5 km/h 39.4% 0 mm 930 W/m2
14:24 34.8 °C 19.1 °C 1014.4 hPa WNW 4.8 km/h 14.5 km/h 39.6% 0 mm 923 W/m2
14:29 34.8 °C 18.9 °C 1014.4 hPa West 2.7 km/h 14.5 km/h 39.3% 0 mm 912 W/m2
14:34 34.9 °C 19 °C 1014.4 hPa West 3.7 km/h 14.5 km/h 39.3% 0 mm 916 W/m2
14:39 34.9 °C 19.3 °C 1014.4 hPa West 2.3 km/h 12.9 km/h 40.1% 0 mm 902 W/m2
14:44 35 °C 19.3 °C 1014.4 hPa WSW 2.9 km/h 14.5 km/h 39.9% 0 mm 896 W/m2
14:49 34.9 °C 18.6 °C 1014.1 hPa West 4.3 km/h 14.5 km/h 38.2% 0 mm 893 W/m2
14:54 34.8 °C 19.1 °C 1014.1 hPa WSW 3.9 km/h 17.7 km/h 39.7% 0 mm 881 W/m2
14:59 34.9 °C 19 °C 1014.1 hPa WSW 3.4 km/h 17.7 km/h 39.2% 0 mm 875 W/m2
15:04 34.9 °C 19.1 °C 1014.1 hPa WSW 3.1 km/h 17.7 km/h 39.3% 0 mm 863 W/m2
15:09 34.9 °C 18.8 °C 1014.1 hPa WNW 3.7 km/h 14.5 km/h 38.5% 0 mm 856 W/m2
15:14 35.1 °C 18.6 °C 1014.1 hPa West 4.2 km/h 14.5 km/h 37.8% 0 mm 851 W/m2
15:19 35.1 °C 18.6 °C 1014.1 hPa WSW 5.3 km/h 20.9 km/h 37.7% 0 mm 846 W/m2
15:24 35.1 °C 18.2 °C 1014.1 hPa WSW 6.9 km/h 20.9 km/h 37.1% 0 mm 816 W/m2
15:29 34.9 °C 18.2 °C 1014.1 hPa West 6.4 km/h 20.9 km/h 37.2% 0 mm 807 W/m2
15:34 34.8 °C 18.7 °C 1014.1 hPa WNW 3.9 km/h 20.9 km/h 38.6% 0 mm 803 W/m2
15:39 34.8 °C 18.4 °C 1014.1 hPa West 2.7 km/h 9.7 km/h 38.1% 0 mm 719 W/m2
15:44 34.8 °C 19 °C 1014.1 hPa West 4 km/h 14.5 km/h 39.3% 0 mm 694 W/m2
15:49 34.8 °C 18.6 °C 1014.1 hPa West 4.5 km/h 17.7 km/h 38.5% 0 mm 754 W/m2
15:54 34.7 °C 18.1 °C 1014.1 hPa South 2.4 km/h 17.7 km/h 37.5% 0 mm 601 W/m2
15:59 34.6 °C 18.4 °C 1014.1 hPa WSW 3.7 km/h 17.7 km/h 38.5% 0 mm 589 W/m2
16:00 34.4 °C 18.1 °C 1013.8 hPa Calm   17.7 km/h 38% 0 mm 536 W/m2
16:09 34.3 °C 18.8 °C 1014.1 hPa West 5 km/h 22.5 km/h 40.1% 0 mm 650 W/m2
16:14 34.2 °C 18.6 °C 1014.1 hPa SW 3.9 km/h 22.5 km/h 39.8% 0 mm 362 W/m2
16:19 34.1 °C 18.8 °C 1013.8 hPa WSW 2.9 km/h 22.5 km/h 40.7% 0 mm 111 W/m2
16:24 33.9 °C 18.6 °C 1013.8 hPa WSW 5 km/h 22.5 km/h 40.3% 0 mm 104 W/m2
16:29 33.8 °C 17.7 °C 1013.8 hPa WSW 8.9 km/h 22.5 km/h 38.3% 0 mm 102 W/m2
16:34 33.7 °C 18.1 °C 1014.1 hPa WSW 5.5 km/h 22.5 km/h 39.7% 0 mm 114 W/m2
16:39 33.7 °C 17.9 °C 1014.1 hPa WSW 5 km/h 22.5 km/h 39.2% 0 mm 113 W/m2
16:44 33.6 °C 18.1 °C 1013.8 hPa West 6.3 km/h 22.5 km/h 39.8% 0 mm 104 W/m2
16:49 33.6 °C 18.2 °C 1013.8 hPa WSW 5 km/h 22.5 km/h 40.1% 0 mm 105 W/m2
16:54 33.6 °C 18.5 °C 1013.8 hPa West 5.5 km/h 22.5 km/h 41% 0 mm 109 W/m2
16:59 33.6 °C 18.7 °C 1013.8 hPa WNW 4 km/h 22.5 km/h 41.6% 0 mm 102 W/m2
17:04 33.4 °C 18.8 °C 1013.8 hPa WNW 1.1 km/h 22.5 km/h 42.1% 0 mm 107 W/m2
17:09 33.3 °C 19 °C 1014.1 hPa WSW 1.6 km/h 11.3 km/h 42.8% 0 mm 123 W/m2
17:14 33.3 °C 18.8 °C 1013.8 hPa SW 3.7 km/h 11.3 km/h 42.3% 0 mm 127 W/m2
17:19 33.3 °C 19.1 °C 1013.8 hPa SW 1.1 km/h 11.3 km/h 43.1% 0 mm 123 W/m2
17:24 33.3 °C 19.3 °C 1013.8 hPa SW 0.6 km/h 11.3 km/h 43.6% 0 mm 109 W/m2
17:29 33.3 °C 19.2 °C 1013.8 hPa WSW 1.6 km/h 11.3 km/h 43.3% 0 mm 91 W/m2
17:34 33.3 °C 19.2 °C 1013.8 hPa WSW 1.8 km/h 11.3 km/h 43.2% 0 mm 81 W/m2
17:39 33.4 °C 19.6 °C 1013.8 hPa WSW 2.4 km/h 14.5 km/h 44.1% 0 mm 72 W/m2
17:44 33.4 °C 19.8 °C 1013.8 hPa WSW 1.6 km/h 14.5 km/h 44.7% 0 mm 70 W/m2
17:49 33.4 °C 19.6 °C 1013.8 hPa WSW 3.1 km/h 14.5 km/h 44% 0 mm 62 W/m2
17:54 33.4 °C 19.7 °C 1013.8 hPa WSW 4.2 km/h 14.5 km/h 44.4% 0 mm 62 W/m2
17:59 33.4 °C 19.3 °C 1013.8 hPa WSW 4.2 km/h 14.5 km/h 43.4% 0 mm 63 W/m2
18:04 33.3 °C 19.2 °C 1013.8 hPa West 3.5 km/h 14.5 km/h 43.4% 0 mm 62 W/m2
18:09 33.2 °C 19.3 °C 1013.8 hPa WSW 3.1 km/h 11.3 km/h 44% 0 mm 53 W/m2
18:14 33.1 °C 19.1 °C 1013.8 hPa SW 1.3 km/h 11.3 km/h 43.5% 0 mm 49 W/m2
18:19 33 °C 19.3 °C 1013.8 hPa WSW 2.4 km/h 11.3 km/h 44.6% 0 mm 47 W/m2
18:24 32.9 °C 19.2 °C 1013.8 hPa SW 1.3 km/h 14.5 km/h 44.5% 0 mm 46 W/m2
18:29 32.8 °C 19.2 °C 1013.8 hPa SW 1.3 km/h 14.5 km/h 44.9% 0 mm 46 W/m2
18:34 32.7 °C 19.2 °C 1013.8 hPa SW 1 km/h 14.5 km/h 45.1% 0 mm 46 W/m2
18:39 32.6 °C 19.3 °C 1013.8 hPa WSW 0.8 km/h 8 km/h 45.5% 0 mm 47 W/m2
18:44 32.5 °C 19.4 °C 1013.8 hPa WSW 1.3 km/h 8 km/h 46.2% 0 mm 49 W/m2
18:49 32.4 °C 19.4 °C 1013.8 hPa WSW 1.6 km/h 9.7 km/h 46.3% 0 mm 53 W/m2
18:54 32.3 °C 19.5 °C 1013.8 hPa WSW 1 km/h 9.7 km/h 46.8% 0 mm 53 W/m2
18:59 32.2 °C 19.6 °C 1013.8 hPa WSW 0.2 km/h 9.7 km/h 47.2% 0 mm 53 W/m2
19:04 32.2 °C 19.7 °C 1013.8 hPa Calm   9.7 km/h 47.8% 0 mm 49 W/m2
19:09 32.1 °C 19.7 °C 1013.8 hPa WSW 0.2 km/h 4.8 km/h 48% 0 mm 47 W/m2
19:14 32 °C 19.6 °C 1013.8 hPa WSW 0.3 km/h 4.8 km/h 47.8% 0 mm 47 W/m2
19:19 31.9 °C 19.7 °C 1013.8 hPa WSW 0.2 km/h 4.8 km/h 48.4% 0 mm 47 W/m2
19:24 31.9 °C 19.8 °C 1013.8 hPa Calm   4.8 km/h 48.8% 0 mm 47 W/m2
19:29 31.8 °C 19.7 °C 1013.8 hPa WSW 1 km/h 6.4 km/h 48.8% 0 mm 47 W/m2
19:34 31.6 °C 19.6 °C 1013.8 hPa SSW 1.8 km/h 8 km/h 49% 0 mm 47 W/m2
19:37 31.4 °C 19.8 °C 1013.8 hPa SSW 0.6 km/h 8 km/h 50.2% 0 mm 46 W/m2
20:09 30 °C 20.4 °C 1014.1 hPa Calm     56.5% 0 mm 14 W/m2
20:14 29.8 °C 20.5 °C 1014.1 hPa SSW 0.2 km/h 3.2 km/h 57.4% 0 mm 9 W/m2
20:19 29.7 °C 20.7 °C 1014.1 hPa SSW 0.8 km/h 6.4 km/h 58.5% 0 mm 5 W/m2
20:24 29.4 °C 20.7 °C 1014.1 hPa Calm   6.4 km/h 59.3% 0 mm 0 W/m2
20:29 29.3 °C 20.7 °C 1014.1 hPa SSW 0.3 km/h 6.4 km/h 60% 0 mm 0 W/m2
20:34 29.1 °C 20.7 °C 1014.4 hPa Calm   6.4 km/h 60.6% 0 mm 0 W/m2
20:39 28.9 °C 20.7 °C 1014.4 hPa Calm     61% 0 mm 0 W/m2
20:44 28.8 °C 20.6 °C 1014.4 hPa Calm     61.2% 0 mm 0 W/m2
20:49 28.7 °C 20.7 °C 1014.4 hPa Calm     62% 0 mm 0 W/m2
20:54 28.6 °C 20.8 °C 1014.8 hPa Calm     62.9% 0 mm 0 W/m2
20:59 28.4 °C 20.7 °C 1014.8 hPa Calm     63% 0 mm 0 W/m2
21:04 28.3 °C 20.7 °C 1014.8 hPa Calm     63.5% 0 mm 0 W/m2
21:09 28.2 °C 20.7 °C 1014.8 hPa Calm     64% 0 mm 0 W/m2
21:14 28 °C 20.6 °C 1015.1 hPa Calm     64.1% 0 mm 0 W/m2
21:19 27.9 °C 20.7 °C 1015.1 hPa Calm     65% 0 mm 0 W/m2
21:24 27.8 °C 20.6 °C 1015.1 hPa Calm     65% 0 mm 0 W/m2
21:29 27.7 °C 20.5 °C 1015.1 hPa Calm     65% 0 mm 0 W/m2
21:34 27.5 °C 20.4 °C 1015.1 hPa Calm     65.3% 0 mm 0 W/m2
21:39 27.4 °C 20.4 °C 1015.1 hPa Calm     65.9% 0 mm 0 W/m2
21:44 27.3 °C 20.3 °C 1015.1 hPa Calm     66% 0 mm 0 W/m2
21:49 27.2 °C 20.3 °C 1015.5 hPa Calm     66% 0 mm 0 W/m2
21:54 27.1 °C 20.2 °C 1015.5 hPa Calm     66% 0 mm 0 W/m2
21:59 26.9 °C 20.2 °C 1015.5 hPa Calm     66.4% 0 mm 0 W/m2
22:04 26.8 °C 20.2 °C 1015.5 hPa Calm     67% 0 mm 0 W/m2
22:06 26.8 °C 20.1 °C 1015.5 hPa Calm     67% 0 mm 0 W/m2
22:30 26.2 °C 19.6 °C 1015.8 hPa Calm     67% 0 mm 0 W/m2
23:00 25.4 °C 19.3 °C 1015.8 hPa Calm     69% 0 mm 0 W/m2
23:30 24.8 °C 19 °C 1016.1 hPa Calm     70% 0 mm 0 W/m2
Hartford County Weather
Compliments of Weather Underground - 2 mb